createdAt,value
2017-04-12T00:00:22.675Z,10.90
2017-04-12T00:01:21.810Z,10.90
2017-04-12T00:02:32.605Z,10.80
2017-04-12T00:03:30.942Z,10.80
2017-04-12T00:04:29.260Z,10.90
2017-04-12T00:05:28.460Z,10.80
2017-04-12T00:06:26.820Z,10.90
2017-04-12T00:07:25.167Z,10.90
2017-04-12T00:08:24.194Z,10.80
2017-04-12T00:09:22.496Z,10.80
2017-04-12T00:10:20.908Z,10.90
2017-04-12T00:11:19.206Z,10.80
2017-04-12T00:12:17.528Z,10.90
2017-04-12T00:13:15.856Z,10.80
2017-04-12T00:14:14.120Z,10.70
2017-04-12T00:15:13.123Z,10.60
2017-04-12T00:16:11.450Z,10.50
2017-04-12T00:17:10.323Z,10.50
2017-04-12T00:18:08.701Z,10.40
2017-04-12T00:19:07.013Z,10.30
2017-04-12T00:20:06.162Z,10.30
2017-04-12T00:21:04.514Z,10.30
2017-04-12T00:22:02.801Z,10.30
2017-04-12T00:23:01.075Z,10.30
2017-04-12T00:23:59.367Z,10.30
2017-04-12T00:24:57.715Z,10.40
2017-04-12T00:25:56.686Z,10.40
2017-04-12T00:26:55.019Z,10.50
2017-04-12T00:27:53.321Z,10.40
2017-04-12T00:28:51.660Z,10.40
2017-04-12T00:29:49.954Z,10.30
2017-04-12T00:30:48.239Z,10.20
2017-04-12T00:31:46.527Z,10.10
2017-04-12T00:32:44.886Z,10.10
2017-04-12T00:33:43.161Z,10.00
2017-04-12T00:34:41.464Z,10.00
2017-04-12T00:35:39.808Z,9.90
2017-04-12T00:36:38.128Z,9.90
2017-04-12T00:37:36.407Z,9.90
2017-04-12T00:38:35.204Z,9.90
2017-04-12T00:40:33.047Z,10.00
2017-04-12T00:41:31.392Z,10.10
2017-04-12T00:42:29.788Z,10.10
2017-04-12T00:43:28.266Z,10.10
2017-04-12T00:44:26.584Z,10.20
2017-04-12T00:45:24.857Z,10.30
2017-04-12T00:46:23.134Z,10.30
2017-04-12T00:47:21.535Z,10.30
2017-04-12T00:48:19.851Z,10.30
2017-04-12T00:49:18.107Z,10.40
2017-04-12T00:50:16.395Z,10.40
2017-04-12T00:51:14.711Z,10.40
2017-04-12T00:52:13.731Z,10.40
2017-04-12T00:53:11.978Z,10.40
2017-04-12T00:54:10.980Z,10.40
2017-04-12T00:55:09.280Z,10.40
2017-04-12T00:56:07.623Z,10.40
2017-04-12T00:57:05.939Z,10.30
2017-04-12T00:58:04.268Z,10.30
2017-04-12T00:59:02.555Z,10.30
2017-04-12T01:00:00.788Z,10.30
2017-04-12T01:00:59.068Z,10.20
2017-04-12T01:01:57.401Z,10.10
2017-04-12T01:02:56.444Z,10.10
2017-04-12T01:03:54.719Z,10.00
2017-04-12T01:04:52.934Z,10.00
2017-04-12T01:05:51.232Z,10.10
2017-04-12T01:06:49.461Z,10.20
2017-04-12T01:07:47.805Z,10.20
2017-04-12T01:08:46.123Z,10.30
2017-04-12T01:09:44.490Z,10.30
2017-04-12T01:10:42.758Z,10.30
2017-04-12T01:11:41.076Z,10.40
2017-04-12T01:12:40.113Z,10.30
2017-04-12T01:13:38.435Z,10.40
2017-04-12T01:14:37.466Z,10.40
2017-04-12T01:15:35.785Z,10.40
2017-04-12T01:16:34.786Z,10.30
2017-04-12T01:17:33.850Z,10.30
2017-04-12T01:18:32.111Z,10.30
2017-04-12T01:19:30.828Z,10.30
2017-04-12T01:20:29.125Z,10.30
2017-04-12T01:21:27.624Z,10.30
2017-04-12T01:22:26.615Z,10.30
2017-04-12T01:23:24.872Z,10.20
2017-04-12T01:24:23.133Z,10.20
2017-04-12T01:25:21.392Z,10.20
2017-04-12T01:26:19.712Z,10.20
2017-04-12T01:27:18.041Z,10.30
2017-04-12T01:28:16.267Z,10.20
2017-04-12T01:29:14.520Z,10.30
2017-04-12T01:30:12.763Z,10.20
2017-04-12T01:31:10.976Z,10.20
2017-04-12T01:32:09.300Z,10.30
2017-04-12T01:33:07.543Z,10.30
2017-04-12T01:34:05.818Z,10.20
2017-04-12T01:35:04.825Z,10.30
2017-04-12T01:36:03.182Z,10.30
2017-04-12T01:37:01.459Z,10.20
2017-04-12T01:37:59.763Z,10.10
2017-04-12T01:38:58.053Z,10.10
2017-04-12T01:39:56.304Z,10.10
2017-04-12T01:40:54.603Z,10.10
2017-04-12T01:41:53.702Z,10.00
2017-04-12T01:42:52.044Z,9.90
2017-04-12T01:43:50.522Z,9.80
2017-04-12T01:44:48.914Z,9.70
2017-04-12T01:45:47.167Z,9.70
2017-04-12T01:46:46.968Z,9.60
2017-04-12T01:47:46.026Z,9.60
2017-04-12T01:48:44.275Z,9.60
2017-04-12T01:49:42.595Z,9.60
2017-04-12T01:50:46.191Z,9.50
2017-04-12T01:51:44.866Z,9.60
2017-04-12T01:52:43.101Z,9.50
2017-04-12T01:53:41.447Z,9.50
2017-04-12T01:54:40.479Z,9.50
2017-04-12T01:55:38.798Z,9.60
2017-04-12T01:56:37.050Z,9.60
2017-04-12T01:57:36.102Z,9.60
2017-04-12T01:58:34.472Z,9.60
2017-04-12T01:59:32.753Z,9.60
2017-04-12T02:00:31.172Z,9.70
2017-04-12T02:01:29.452Z,9.80
2017-04-12T02:02:28.538Z,9.80
2017-04-12T02:03:26.868Z,9.80
2017-04-12T02:04:25.164Z,9.80
2017-04-12T02:05:23.445Z,9.80
2017-04-12T02:06:21.748Z,9.80
2017-04-12T02:07:20.046Z,9.90
2017-04-12T02:08:18.305Z,9.90
2017-04-12T02:09:16.576Z,9.90
2017-04-12T02:10:14.837Z,9.90
2017-04-12T02:11:13.086Z,9.90
2017-04-12T02:12:11.447Z,9.80
2017-04-12T02:13:09.745Z,9.80
2017-04-12T02:14:08.050Z,9.80
2017-04-12T02:15:07.075Z,9.90
2017-04-12T02:16:05.382Z,9.80
2017-04-12T02:17:04.423Z,9.90
2017-04-12T02:18:02.795Z,9.90
2017-04-12T02:19:01.118Z,9.90
2017-04-12T02:20:00.168Z,9.80
2017-04-12T02:20:58.430Z,9.80
2017-04-12T02:21:56.738Z,9.80
2017-04-12T02:22:55.047Z,9.80
2017-04-12T02:23:53.436Z,9.80
2017-04-12T02:24:51.726Z,9.80
2017-04-12T02:25:50.084Z,9.80
2017-04-12T02:26:48.380Z,9.90
2017-04-12T02:27:47.384Z,9.80
2017-04-12T02:28:45.712Z,9.80
2017-04-12T02:29:44.006Z,9.90
2017-04-12T02:30:42.313Z,9.90
2017-04-12T02:31:40.637Z,9.90
2017-04-12T02:32:39.726Z,9.90
2017-04-12T02:33:38.071Z,9.90
2017-04-12T02:34:36.492Z,9.90
2017-04-12T02:35:34.744Z,9.80
2017-04-12T02:36:33.061Z,9.70
2017-04-12T02:37:31.381Z,9.70
2017-04-12T02:38:29.773Z,9.50
2017-04-12T02:39:28.059Z,9.40
2017-04-12T02:40:26.334Z,9.30
2017-04-12T02:41:24.608Z,9.30
2017-04-12T02:42:22.920Z,9.30
2017-04-12T02:43:21.203Z,9.20
2017-04-12T02:44:19.463Z,9.20
2017-04-12T02:45:17.773Z,9.20
2017-04-12T02:46:16.076Z,9.20
2017-04-12T02:47:14.349Z,9.20
2017-04-12T02:48:12.640Z,9.20
2017-04-12T02:49:10.891Z,9.10
2017-04-12T02:50:09.145Z,9.10
2017-04-12T02:51:07.444Z,9.20
2017-04-12T02:52:05.721Z,9.30
2017-04-12T02:53:03.977Z,9.30
2017-04-12T02:54:02.266Z,9.30
2017-04-12T02:55:00.536Z,9.40
2017-04-12T02:55:58.823Z,9.30
2017-04-12T02:56:57.096Z,9.30
2017-04-12T02:57:56.127Z,9.20
2017-04-12T02:58:54.390Z,9.10
2017-04-12T02:59:52.672Z,9.10
2017-04-12T03:00:50.933Z,9.10
2017-04-12T03:01:49.247Z,9.10
2017-04-12T03:02:48.221Z,9.00
2017-04-12T03:03:46.490Z,9.00
2017-04-12T03:04:44.759Z,9.00
2017-04-12T03:05:43.025Z,9.00
2017-04-12T03:06:42.107Z,9.00
2017-04-12T03:07:41.144Z,9.10
2017-04-12T03:09:47.414Z,9.30
2017-04-12T03:10:45.635Z,9.30
2017-04-12T03:11:43.972Z,9.30
2017-04-12T03:12:42.253Z,9.30
2017-04-12T03:13:41.284Z,9.20
2017-04-12T03:14:40.208Z,9.10
2017-04-12T03:15:38.476Z,9.10
2017-04-12T03:16:36.715Z,9.00
2017-04-12T03:17:34.995Z,9.00
2017-04-12T03:18:33.303Z,9.10
2017-04-12T03:19:32.536Z,9.20
2017-04-12T03:20:30.877Z,9.20
2017-04-12T03:21:29.164Z,9.20
2017-04-12T03:22:28.245Z,9.30
2017-04-12T03:23:26.522Z,9.40
2017-04-12T03:24:24.866Z,9.40
2017-04-12T03:25:23.181Z,9.40
2017-04-12T03:26:21.412Z,9.40
2017-04-12T03:27:19.734Z,9.40
2017-04-12T03:28:18.763Z,9.40
2017-04-12T03:29:17.370Z,9.40
2017-04-12T03:30:15.678Z,9.40
2017-04-12T03:31:13.971Z,9.40
2017-04-12T03:32:12.733Z,9.40
2017-04-12T03:33:11.036Z,9.40
2017-04-12T03:34:09.278Z,9.30
2017-04-12T03:35:07.588Z,9.30
2017-04-12T03:36:05.992Z,9.20
2017-04-12T03:37:04.282Z,9.20
2017-04-12T03:38:02.752Z,9.10
2017-04-12T03:39:01.094Z,9.20
2017-04-12T03:40:00.107Z,9.20
2017-04-12T03:40:58.374Z,9.20
2017-04-12T03:41:56.657Z,9.20
2017-04-12T03:42:54.970Z,9.20
2017-04-12T03:43:53.253Z,9.30
2017-04-12T03:44:52.101Z,9.40
2017-04-12T03:45:51.171Z,9.30
2017-04-12T03:46:49.528Z,9.30
2017-04-12T03:47:47.836Z,9.30
2017-04-12T03:48:46.853Z,9.20
2017-04-12T03:49:45.144Z,9.30
2017-04-12T03:50:44.138Z,9.20
2017-04-12T03:51:42.430Z,9.20
2017-04-12T03:52:40.740Z,9.10
2017-04-12T03:53:39.075Z,9.10
2017-04-12T03:54:38.148Z,9.10
2017-04-12T03:55:36.522Z,9.10
2017-04-12T03:56:35.625Z,9.00
2017-04-12T03:57:33.893Z,9.00
2017-04-12T03:58:32.958Z,8.90
2017-04-12T03:59:31.991Z,8.90
2017-04-12T04:00:30.354Z,8.90
2017-04-12T04:01:28.620Z,8.80
2017-04-12T04:02:26.848Z,8.80
2017-04-12T04:03:25.814Z,8.70
2017-04-12T04:04:24.190Z,8.70
2017-04-12T04:05:23.293Z,8.70
2017-04-12T04:06:22.907Z,8.60
2017-04-12T04:07:21.791Z,8.60
2017-04-12T04:08:20.115Z,8.50
2017-04-12T04:09:18.525Z,8.50
2017-04-12T04:10:16.846Z,8.50
2017-04-12T04:12:13.963Z,8.60
2017-04-12T04:13:12.284Z,8.60
2017-04-12T04:14:10.655Z,8.60
2017-04-12T04:15:09.697Z,8.60
2017-04-12T04:16:08.101Z,8.60
2017-04-12T04:17:07.160Z,8.60
2017-04-12T04:18:05.595Z,8.70
2017-04-12T04:19:04.862Z,8.70
2017-04-12T04:20:03.219Z,8.70
2017-04-12T04:21:02.284Z,8.70
2017-04-12T04:22:00.630Z,8.80
2017-04-12T04:22:58.924Z,8.70
2017-04-12T04:23:57.219Z,8.70
2017-04-12T04:24:55.487Z,8.60
2017-04-12T04:25:53.721Z,8.60
2017-04-12T04:26:52.003Z,8.60
2017-04-12T04:27:50.299Z,8.60
2017-04-12T04:28:48.593Z,8.50
2017-04-12T04:29:46.962Z,8.50
2017-04-12T04:30:45.228Z,8.50
2017-04-12T04:31:43.559Z,8.50
2017-04-12T04:32:41.922Z,8.50
2017-04-12T04:33:40.275Z,8.40
2017-04-12T04:34:39.379Z,8.50
2017-04-12T04:35:37.617Z,8.40
2017-04-12T04:36:35.919Z,8.40
2017-04-12T04:37:34.257Z,8.40
2017-04-12T04:38:32.892Z,8.40
2017-04-12T04:39:31.148Z,8.40
2017-04-12T04:40:31.968Z,8.40
2017-04-12T04:41:35.740Z,8.30
2017-04-12T04:42:37.443Z,8.20
2017-04-12T04:43:40.571Z,8.20
2017-04-12T04:44:41.238Z,8.20
2017-04-12T04:46:50.285Z,8.30
2017-04-12T04:47:50.463Z,8.30
2017-04-12T04:48:48.768Z,8.50
2017-04-12T04:49:47.060Z,8.60
2017-04-12T04:50:45.393Z,8.70
2017-04-12T04:51:43.735Z,8.80
2017-04-12T04:52:41.978Z,8.90
2017-04-12T04:53:40.351Z,8.90
2017-04-12T04:54:39.140Z,8.90
2017-04-12T04:55:37.872Z,8.90
2017-04-12T04:56:36.249Z,8.90
2017-04-12T04:57:35.310Z,8.90
2017-04-12T04:58:33.654Z,8.90
2017-04-12T04:59:32.000Z,8.90
2017-04-12T05:00:30.311Z,8.90
2017-04-12T05:01:28.622Z,8.80
2017-04-12T05:02:26.932Z,8.90
2017-04-12T05:03:25.209Z,8.90
2017-04-12T05:04:23.497Z,8.80
2017-04-12T05:05:22.544Z,8.80
2017-04-12T05:06:20.811Z,8.80
2017-04-12T05:07:19.132Z,8.80
2017-04-12T05:08:17.451Z,8.80
2017-04-12T05:09:15.744Z,8.90
2017-04-12T05:10:14.035Z,8.90
2017-04-12T05:11:12.361Z,8.90
2017-04-12T05:12:10.758Z,8.90
2017-04-12T05:13:09.152Z,8.90
2017-04-12T05:14:07.440Z,9.00
2017-04-12T05:15:05.721Z,9.10
2017-04-12T05:16:04.104Z,9.20
2017-04-12T05:17:02.357Z,9.10
2017-04-12T05:18:00.660Z,9.20
2017-04-12T05:18:59.333Z,9.20
2017-04-12T05:19:57.603Z,9.20
2017-04-12T05:20:56.728Z,9.20
2017-04-12T05:21:55.087Z,9.20
2017-04-12T05:22:53.383Z,9.30
2017-04-12T05:23:51.757Z,9.20
2017-04-12T05:24:50.070Z,9.20
2017-04-12T05:25:48.433Z,9.00
2017-04-12T05:26:46.742Z,9.00
2017-04-12T05:27:45.002Z,9.00
2017-04-12T05:28:43.280Z,9.00
2017-04-12T05:29:41.582Z,9.00
2017-04-12T05:30:39.913Z,8.90
2017-04-12T05:31:38.173Z,9.00
2017-04-12T05:32:36.495Z,9.00
2017-04-12T05:33:35.532Z,8.90
2017-04-12T05:34:33.911Z,9.00
2017-04-12T05:35:32.156Z,9.00
2017-04-12T05:36:30.500Z,9.00
2017-04-12T05:37:28.825Z,8.90
2017-04-12T05:38:27.141Z,8.90
2017-04-12T05:39:25.403Z,9.00
2017-04-12T05:40:23.703Z,8.90
2017-04-12T05:41:22.023Z,9.00
2017-04-12T05:42:20.358Z,9.10
2017-04-12T05:43:18.701Z,9.20
2017-04-12T05:44:17.010Z,9.20
2017-04-12T05:45:15.355Z,9.10
2017-04-12T05:46:14.439Z,9.00
2017-04-12T05:47:12.724Z,9.00
2017-04-12T05:48:11.030Z,9.00
2017-04-12T05:49:09.360Z,9.10
2017-04-12T05:50:07.643Z,9.10
2017-04-12T05:51:05.896Z,9.10
2017-04-12T05:52:04.195Z,9.10
2017-04-12T05:53:02.444Z,9.00
2017-04-12T05:54:00.859Z,8.90
2017-04-12T05:54:59.352Z,8.90
2017-04-12T05:55:57.609Z,9.00
2017-04-12T05:56:55.952Z,9.00
2017-04-12T05:57:54.239Z,9.00
2017-04-12T05:58:52.527Z,9.00
2017-04-12T05:59:50.781Z,8.90
2017-04-12T06:00:49.110Z,8.90
2017-04-12T06:01:47.445Z,9.00
2017-04-12T06:02:45.724Z,9.00
2017-04-12T06:03:44.788Z,8.90
2017-04-12T06:04:43.047Z,9.00
2017-04-12T06:05:41.309Z,9.10
2017-04-12T06:06:39.734Z,9.00
2017-04-12T06:07:38.042Z,9.10
2017-04-12T06:08:36.310Z,9.20
2017-04-12T06:09:34.540Z,9.20
2017-04-12T06:10:32.834Z,9.30
2017-04-12T06:11:31.152Z,9.30
2017-04-12T06:12:30.154Z,9.30
2017-04-12T06:13:28.480Z,9.30
2017-04-12T06:14:26.735Z,9.30
2017-04-12T06:15:25.031Z,9.30
2017-04-12T06:16:23.351Z,9.30
2017-04-12T06:17:21.671Z,9.30
2017-04-12T06:18:20.673Z,9.30
2017-04-12T06:19:18.992Z,9.30
2017-04-12T06:20:17.310Z,9.30
2017-04-12T06:21:15.621Z,9.30
2017-04-12T06:22:13.940Z,9.30
2017-04-12T06:23:12.248Z,9.30
2017-04-12T06:24:10.523Z,9.40
2017-04-12T06:25:08.799Z,9.50
2017-04-12T06:26:07.050Z,9.50
2017-04-12T06:27:05.347Z,9.60
2017-04-12T06:28:03.579Z,9.50
2017-04-12T06:29:01.976Z,9.50
2017-04-12T06:30:00.237Z,9.40
2017-04-12T06:30:58.603Z,9.40
2017-04-12T06:31:56.891Z,9.40
2017-04-12T06:32:55.165Z,9.20
2017-04-12T06:33:53.504Z,9.30
2017-04-12T06:34:51.900Z,9.50
2017-04-12T06:35:51.029Z,9.60
2017-04-12T06:36:49.277Z,9.50
2017-04-12T06:37:47.534Z,9.50
2017-04-12T06:38:45.913Z,9.50
2017-04-12T06:39:44.268Z,9.60
2017-04-12T06:40:42.639Z,9.70
2017-04-12T06:41:40.964Z,9.60
2017-04-12T06:42:39.280Z,9.70
2017-04-12T06:43:37.611Z,9.70
2017-04-12T06:44:36.000Z,9.70
2017-04-12T06:45:35.019Z,9.80
2017-04-12T06:46:33.302Z,9.90
2017-04-12T06:47:31.617Z,9.90
2017-04-12T06:48:30.641Z,9.90
2017-04-12T06:49:28.955Z,10.00
2017-04-12T06:50:27.285Z,10.00
2017-04-12T06:51:25.602Z,10.10
2017-04-12T06:52:24.636Z,10.10
2017-04-12T06:53:22.960Z,10.20
2017-04-12T06:54:21.593Z,10.30
2017-04-12T06:55:20.472Z,10.40
2017-04-12T06:56:18.802Z,10.40
2017-04-12T06:57:17.054Z,10.40
2017-04-12T06:58:15.345Z,10.50
2017-04-12T06:59:13.634Z,10.50
2017-04-12T07:00:20.045Z,10.30
2017-04-12T07:01:18.515Z,10.50
2017-04-12T07:02:16.878Z,10.50
2017-04-12T07:03:19.577Z,10.50
2017-04-12T07:04:23.867Z,10.60
2017-04-12T07:05:27.043Z,10.50
2017-04-12T07:06:25.368Z,10.50
2017-04-12T07:07:23.663Z,10.40
2017-04-12T07:08:21.949Z,10.30
2017-04-12T07:09:20.235Z,10.40
2017-04-12T07:10:18.559Z,10.20
2017-04-12T07:11:17.691Z,10.10
2017-04-12T07:12:16.068Z,10.30
2017-04-12T07:13:14.403Z,10.40
2017-04-12T07:14:13.611Z,10.60
2017-04-12T07:15:11.901Z,10.70
2017-04-12T07:16:11.242Z,10.80
2017-04-12T07:17:10.332Z,11.00
2017-04-12T07:18:08.672Z,11.10
2017-04-12T07:19:07.021Z,11.20
2017-04-12T07:20:05.643Z,11.30
2017-04-12T07:21:03.912Z,11.40
2017-04-12T07:22:02.243Z,11.40
2017-04-12T07:23:00.593Z,11.60
2017-04-12T07:23:59.350Z,11.60
2017-04-12T07:24:57.677Z,11.60
2017-04-12T07:25:55.959Z,11.70
2017-04-12T07:26:55.008Z,11.60
2017-04-12T07:27:53.326Z,11.60
2017-04-12T07:28:51.614Z,11.50
2017-04-12T07:29:49.883Z,11.50
2017-04-12T07:30:48.155Z,11.50
2017-04-12T07:31:46.446Z,11.50
2017-04-12T07:32:44.752Z,11.70
2017-04-12T07:33:43.106Z,11.90
2017-04-12T07:34:42.146Z,11.90
2017-04-12T07:35:41.200Z,12.00
2017-04-12T07:36:39.453Z,12.00
2017-04-12T07:37:37.705Z,12.00
2017-04-12T07:38:36.105Z,12.10
2017-04-12T07:39:34.443Z,12.10
2017-04-12T07:40:33.470Z,12.10
2017-04-12T07:41:31.815Z,12.30
2017-04-12T07:42:30.079Z,12.40
2017-04-12T07:43:28.340Z,12.30
2017-04-12T07:44:27.437Z,12.30
2017-04-12T07:45:25.735Z,12.50
2017-04-12T07:46:24.098Z,12.50
2017-04-12T07:47:22.405Z,12.70
2017-04-12T07:48:20.730Z,12.80
2017-04-12T07:49:19.051Z,12.60
2017-04-12T07:50:18.099Z,12.80
2017-04-12T07:51:16.425Z,13.10
2017-04-12T07:52:14.766Z,13.00
2017-04-12T07:53:13.853Z,13.10
2017-04-12T07:54:12.931Z,13.10
2017-04-12T07:55:11.197Z,13.20
2017-04-12T07:56:09.468Z,13.50
2017-04-12T07:57:08.499Z,13.70
2017-04-12T07:58:06.846Z,13.80
2017-04-12T07:59:05.164Z,14.20
2017-04-12T08:00:03.572Z,14.00
2017-04-12T08:01:01.868Z,14.00
2017-04-12T08:02:00.123Z,14.00
2017-04-12T08:02:58.406Z,14.20
2017-04-12T08:03:56.773Z,14.10
2017-04-12T08:04:55.091Z,14.10
2017-04-12T08:05:53.442Z,14.00
2017-04-12T08:06:51.766Z,14.10
2017-04-12T08:07:50.028Z,14.00
2017-04-12T08:08:48.345Z,14.10
2017-04-12T08:09:46.630Z,14.10
2017-04-12T08:10:44.907Z,14.10
2017-04-12T08:11:44.011Z,14.00
2017-04-12T08:12:42.336Z,14.10
2017-04-12T08:13:40.683Z,14.00
2017-04-12T08:14:38.971Z,14.10
2017-04-12T08:15:37.251Z,14.00
2017-04-12T08:16:35.591Z,14.20
2017-04-12T08:17:34.759Z,14.40
2017-04-12T08:18:33.694Z,14.30
2017-04-12T08:19:32.816Z,14.20
2017-04-12T08:20:31.134Z,14.20
2017-04-12T08:21:29.393Z,13.90
2017-04-12T08:22:27.718Z,13.90
2017-04-12T08:23:26.031Z,14.00
2017-04-12T08:24:24.335Z,14.10
2017-04-12T08:25:22.664Z,14.20
2017-04-12T08:26:21.020Z,14.20
2017-04-12T08:27:19.353Z,14.30
2017-04-12T08:28:17.590Z,14.40
2017-04-12T08:29:16.595Z,14.30
2017-04-12T08:30:14.871Z,14.30
2017-04-12T08:31:13.206Z,14.60
2017-04-12T08:32:12.281Z,14.90
2017-04-12T08:33:10.585Z,14.90
2017-04-12T08:34:08.891Z,14.80
2017-04-12T08:35:07.181Z,15.10
2017-04-12T08:36:05.511Z,15.30
2017-04-12T08:37:03.809Z,15.70
2017-04-12T08:38:02.178Z,15.80
2017-04-12T08:39:00.441Z,16.20
2017-04-12T08:39:58.790Z,16.20
2017-04-12T08:40:57.121Z,16.40
2017-04-12T08:41:55.737Z,16.40
2017-04-12T08:42:54.030Z,16.30
2017-04-12T08:43:52.273Z,16.40
2017-04-12T08:44:50.600Z,16.60
2017-04-12T08:45:48.936Z,16.50
2017-04-12T08:46:47.269Z,16.50
2017-04-12T08:47:45.581Z,16.60
2017-04-12T08:48:44.599Z,16.60
2017-04-12T08:49:42.861Z,16.40
2017-04-12T08:50:41.160Z,16.10
2017-04-12T08:51:39.845Z,15.90
2017-04-12T08:52:38.140Z,15.90
2017-04-12T08:53:37.208Z,15.80
2017-04-12T08:54:35.634Z,15.80
2017-04-12T08:55:34.007Z,15.80
2017-04-12T08:56:32.284Z,16.00
2017-04-12T08:57:30.584Z,15.80
2017-04-12T08:58:29.418Z,15.80
2017-04-12T08:59:27.738Z,16.00
2017-04-12T09:00:26.138Z,16.20
2017-04-12T09:01:24.432Z,16.20
2017-04-12T09:02:22.716Z,16.20
2017-04-12T09:03:21.074Z,16.30
2017-04-12T09:04:20.076Z,16.60
2017-04-12T09:05:18.424Z,16.60
2017-04-12T09:06:16.821Z,16.70
2017-04-12T09:07:16.113Z,16.90
2017-04-12T09:08:14.367Z,17.00
2017-04-12T09:09:12.603Z,17.20
2017-04-12T09:10:10.894Z,17.70
2017-04-12T09:11:09.172Z,17.90
2017-04-12T09:12:07.447Z,18.30
2017-04-12T09:13:05.673Z,18.30
2017-04-12T09:14:03.899Z,18.50
2017-04-12T09:15:02.170Z,18.80
2017-04-12T09:16:00.403Z,18.90
2017-04-12T09:16:58.682Z,18.60
2017-04-12T09:17:57.021Z,18.60
2017-04-12T09:18:55.338Z,18.80
2017-04-12T09:19:53.748Z,19.10
2017-04-12T09:20:52.063Z,19.40
2017-04-12T09:21:51.799Z,19.80
2017-04-12T09:22:50.096Z,19.40
2017-04-12T09:23:48.429Z,19.90
2017-04-12T09:24:46.719Z,20.30
2017-04-12T09:25:45.044Z,20.80
2017-04-12T09:26:43.290Z,20.50
2017-04-12T09:27:42.382Z,20.20
2017-04-12T09:28:41.978Z,20.30
2017-04-12T09:29:41.024Z,20.10
2017-04-12T09:30:39.402Z,20.00
2017-04-12T09:31:37.686Z,19.70
2017-04-12T09:32:36.071Z,19.50
2017-04-12T09:33:35.096Z,19.40
2017-04-12T09:34:33.455Z,19.40
2017-04-12T09:35:31.852Z,19.50
2017-04-12T09:36:30.231Z,19.80
2017-04-12T09:37:28.494Z,19.80
2017-04-12T09:38:26.800Z,19.90
2017-04-12T09:39:26.524Z,19.80
2017-04-12T09:40:24.950Z,19.60
2017-04-12T09:41:23.311Z,19.10
2017-04-12T09:42:21.575Z,19.00
2017-04-12T09:43:19.890Z,18.90
2017-04-12T09:44:18.151Z,19.00
2017-04-12T09:45:17.211Z,19.10
2017-04-12T09:46:15.464Z,19.10
2017-04-12T09:47:14.960Z,19.30
2017-04-12T09:48:13.245Z,19.60
2017-04-12T09:49:12.141Z,19.50
2017-04-12T09:50:10.521Z,19.60
2017-04-12T09:51:08.780Z,19.60
2017-04-12T09:52:07.114Z,19.80
2017-04-12T09:53:06.300Z,19.80
2017-04-12T09:54:04.618Z,19.80
2017-04-12T09:55:03.058Z,19.80
2017-04-12T09:56:02.032Z,19.50
2017-04-12T09:57:00.321Z,19.60
2017-04-12T09:57:58.565Z,19.70
2017-04-12T09:58:57.902Z,19.90
2017-04-12T09:59:56.816Z,19.80
2017-04-12T10:00:55.109Z,19.90
2017-04-12T10:01:54.119Z,19.80
2017-04-12T10:02:52.472Z,19.90
2017-04-12T10:03:50.788Z,20.10
2017-04-12T10:04:49.039Z,20.10
2017-04-12T10:05:47.484Z,19.80
2017-04-12T10:06:45.741Z,20.20
2017-04-12T10:07:45.046Z,19.40
2017-04-12T10:08:43.418Z,18.90
2017-04-12T10:09:41.746Z,18.80
2017-04-12T10:10:40.150Z,19.00
2017-04-12T10:11:38.434Z,19.30
2017-04-12T10:12:36.723Z,19.20
2017-04-12T10:13:34.983Z,19.10
2017-04-12T10:14:33.253Z,19.00
2017-04-12T10:15:31.537Z,19.20
2017-04-12T10:16:29.854Z,19.20
2017-04-12T10:17:28.107Z,19.30
2017-04-12T10:18:26.353Z,19.50
2017-04-12T10:20:49.096Z,19.60
2017-04-12T10:21:47.545Z,20.30
2017-04-12T10:22:45.815Z,20.50
2017-04-12T10:23:44.100Z,21.00
2017-04-12T10:24:42.921Z,21.30
2017-04-12T10:25:41.192Z,22.00
2017-04-12T10:26:39.493Z,22.40
2017-04-12T10:27:37.775Z,22.20
2017-04-12T10:28:36.081Z,22.40
2017-04-12T10:29:34.339Z,22.50
2017-04-12T10:30:32.717Z,22.20
2017-04-12T10:31:31.003Z,22.40
2017-04-12T10:32:29.356Z,22.50
2017-04-12T10:33:27.676Z,22.50
2017-04-12T10:34:25.978Z,22.90
2017-04-12T10:35:24.233Z,23.10
2017-04-12T10:36:23.255Z,23.60
2017-04-12T10:37:21.547Z,24.10
2017-04-12T10:38:20.745Z,24.20
2017-04-12T10:39:19.189Z,25.00
2017-04-12T10:40:17.472Z,25.30
2017-04-12T10:41:15.835Z,25.50
2017-04-12T10:42:14.111Z,25.20
2017-04-12T10:43:12.388Z,25.40
2017-04-12T10:44:10.683Z,25.40
2017-04-12T10:45:09.726Z,24.50
2017-04-12T10:46:08.037Z,24.90
2017-04-12T10:47:06.322Z,24.60
2017-04-12T10:48:04.692Z,24.40
2017-04-12T10:49:03.989Z,24.60
2017-04-12T10:50:02.297Z,24.90
2017-04-12T10:51:59.564Z,24.70
2017-04-12T10:52:57.821Z,24.60
2017-04-12T10:53:56.106Z,24.60
2017-04-12T10:54:56.629Z,24.30
2017-04-12T10:55:55.927Z,24.70
2017-04-12T10:56:54.506Z,24.10
2017-04-12T10:57:52.895Z,23.90
2017-04-12T10:58:51.684Z,24.30
2017-04-12T10:59:49.983Z,24.00
2017-04-12T11:00:48.236Z,24.00
2017-04-12T11:01:46.559Z,24.40
2017-04-12T11:02:44.863Z,24.80
2017-04-12T11:03:43.147Z,25.10
2017-04-12T11:04:41.422Z,24.90
2017-04-12T11:05:39.735Z,25.00
2017-04-12T11:06:38.041Z,25.60
2017-04-12T11:07:36.714Z,26.10
2017-04-12T11:08:35.052Z,26.80
2017-04-12T11:09:33.474Z,26.20
2017-04-12T11:10:31.788Z,26.10
2017-04-12T11:11:30.864Z,26.00
2017-04-12T11:12:29.161Z,26.30
2017-04-12T11:13:27.525Z,26.30
2017-04-12T11:14:25.813Z,26.50
2017-04-12T11:15:24.322Z,26.60
2017-04-12T11:16:22.653Z,26.50
2017-04-12T11:17:21.029Z,26.80
2017-04-12T11:18:19.388Z,27.20
2017-04-12T11:19:17.693Z,26.20
2017-04-12T11:20:17.222Z,26.00
2017-04-12T11:21:17.940Z,26.30
2017-04-12T11:22:16.993Z,26.40
2017-04-12T11:23:15.436Z,26.70
2017-04-12T11:24:13.720Z,26.90
2017-04-12T11:25:12.843Z,27.00
2017-04-12T11:26:11.107Z,27.40
2017-04-12T11:27:09.413Z,27.50
2017-04-12T11:28:08.451Z,27.80
2017-04-12T11:29:06.787Z,28.30
2017-04-12T11:30:05.072Z,27.80
2017-04-12T11:31:04.123Z,27.60
2017-04-12T11:32:02.765Z,27.60
2017-04-12T11:33:01.082Z,27.70
2017-04-12T11:33:59.347Z,27.80
2017-04-12T11:34:57.601Z,28.40
2017-04-12T11:35:55.877Z,28.40
2017-04-12T11:36:54.195Z,28.60
2017-04-12T11:37:52.471Z,28.30
2017-04-12T11:38:50.795Z,28.40
2017-04-12T11:39:50.940Z,28.30
2017-04-12T11:40:49.392Z,28.60
2017-04-12T11:41:47.734Z,28.00
2017-04-12T11:42:46.831Z,26.90
2017-04-12T11:43:45.873Z,26.30
2017-04-12T11:44:44.230Z,25.90
2017-04-12T11:45:42.582Z,25.80
2017-04-12T11:46:40.859Z,26.00
2017-04-12T11:47:39.213Z,26.30
2017-04-12T11:48:37.482Z,26.50
2017-04-12T11:49:36.453Z,27.00
2017-04-12T11:50:34.827Z,27.40
2017-04-12T11:51:33.244Z,27.80
2017-04-12T11:52:31.530Z,27.70
2017-04-12T11:53:31.456Z,27.60
2017-04-12T11:54:29.772Z,28.00
2017-04-12T11:55:28.043Z,28.30
2017-04-12T11:56:27.025Z,28.40
2017-04-12T11:57:25.349Z,28.80
2017-04-12T11:58:23.680Z,28.70
2017-04-12T11:59:23.038Z,28.60
2017-04-12T12:00:21.388Z,29.00
2017-04-12T12:01:20.066Z,28.80
2017-04-12T12:02:18.417Z,28.80
2017-04-12T12:03:17.451Z,28.60
2017-04-12T12:04:16.091Z,28.40
2017-04-12T12:05:14.355Z,28.50
2017-04-12T12:06:12.670Z,28.60
2017-04-12T12:07:11.063Z,28.40
2017-04-12T12:08:10.381Z,28.30
2017-04-12T12:09:08.677Z,28.20
2017-04-12T12:10:07.037Z,28.50
2017-04-12T12:11:05.382Z,28.60
2017-04-12T12:12:03.856Z,28.40
2017-04-12T12:13:02.315Z,28.00
2017-04-12T12:14:00.676Z,27.40
2017-04-12T12:14:59.835Z,27.70
2017-04-12T12:15:58.232Z,27.70
2017-04-12T12:16:56.535Z,27.20
2017-04-12T12:17:54.936Z,27.10
2017-04-12T12:18:53.233Z,26.70
2017-04-12T12:19:52.382Z,26.40
2017-04-12T12:20:50.688Z,26.20
2017-04-12T12:21:49.953Z,25.90
2017-04-12T12:22:48.421Z,26.30
2017-04-12T12:23:46.749Z,26.40
2017-04-12T12:24:45.059Z,26.40
2017-04-12T12:25:43.418Z,26.00
2017-04-12T12:26:41.798Z,25.90
2017-04-12T12:27:40.079Z,25.60
2017-04-12T12:28:38.401Z,25.40
2017-04-12T12:29:36.735Z,25.90
2017-04-12T12:30:35.074Z,26.40
2017-04-12T12:31:33.417Z,26.70
2017-04-12T12:32:32.546Z,26.60
2017-04-12T12:33:30.972Z,26.60
2017-04-12T12:34:29.277Z,26.50
2017-04-12T12:35:28.298Z,26.60
2017-04-12T12:36:26.588Z,27.10
2017-04-12T12:37:25.014Z,27.00
2017-04-12T12:38:23.361Z,26.90
2017-04-12T12:39:21.676Z,27.10
2017-04-12T12:40:20.915Z,26.80
2017-04-12T12:41:19.171Z,26.60
2017-04-12T12:42:17.487Z,26.40
2017-04-12T12:43:15.817Z,26.20
2017-04-12T12:44:14.088Z,26.10
2017-04-12T12:45:13.122Z,25.70
2017-04-12T12:46:11.492Z,25.90
2017-04-12T12:47:09.818Z,25.90
2017-04-12T12:48:08.866Z,26.20
2017-04-12T12:49:07.212Z,26.30
2017-04-12T12:50:05.571Z,26.40